createdAt,value
2019-04-01T00:00:45.465Z,76.18
2019-04-01T00:03:14.261Z,75.87
2019-04-01T00:05:42.981Z,76.17
2019-04-01T00:08:11.698Z,76.62
2019-04-01T00:10:40.663Z,77.15
2019-04-01T00:13:09.384Z,77.43
2019-04-01T00:15:38.099Z,77.59
2019-04-01T00:18:06.965Z,78.14
2019-04-01T00:20:35.683Z,78.67
2019-04-01T00:23:04.563Z,78.81
2019-04-01T00:25:33.991Z,78.74
2019-04-01T00:28:03.763Z,78.72
2019-04-01T00:30:32.477Z,79.11
2019-04-01T00:33:01.568Z,79.11
2019-04-01T00:35:30.283Z,79.64
2019-04-01T00:37:58.998Z,80.09
2019-04-01T00:40:27.901Z,79.35
2019-04-01T00:43:14.568Z,78.77
2019-04-01T00:45:45.098Z,78.71
2019-04-01T00:48:13.810Z,78.96
2019-04-01T00:50:42.521Z,79.05
2019-04-01T00:53:11.394Z,78.69
2019-04-01T00:55:40.112Z,77.33
2019-04-01T00:58:08.822Z,77.25
2019-04-01T01:00:37.688Z,77.48
2019-04-01T01:03:06.410Z,76.43
2019-04-01T01:05:35.121Z,75.80
2019-04-01T01:08:04.169Z,76.31
2019-04-01T01:10:32.896Z,76.23
2019-04-01T01:13:01.616Z,76.32
2019-04-01T01:15:30.488Z,75.98
2019-04-01T01:17:59.207Z,76.25
2019-04-01T01:20:27.935Z,76.52
2019-04-01T01:22:57.146Z,77.35
2019-04-01T01:25:25.877Z,77.60
2019-04-01T01:27:54.598Z,78.43
2019-04-01T01:30:23.558Z,78.17
2019-04-01T01:32:52.294Z,78.89
2019-04-01T01:35:21.072Z,79.35
2019-04-01T01:37:49.835Z,79.13
2019-04-01T01:40:18.563Z,78.72
2019-04-01T01:42:47.278Z,78.47
2019-04-01T01:45:16.072Z,77.87
2019-04-01T01:47:44.790Z,77.90
2019-04-01T01:50:13.611Z,78.40
2019-04-01T01:52:45.580Z,79.37
2019-04-01T01:55:14.298Z,79.29
2019-04-01T01:57:43.214Z,78.30
2019-04-01T02:00:13.391Z,77.98
2019-04-01T02:02:42.118Z,77.59
2019-04-01T02:05:10.833Z,77.14
2019-04-01T02:07:39.595Z,76.90
2019-04-01T02:10:08.410Z,77.16
2019-04-01T02:12:37.132Z,77.21
2019-04-01T02:15:07.446Z,76.05
2019-04-01T02:17:36.165Z,76.17
2019-04-01T02:20:05.879Z,77.71
2019-04-01T02:22:34.747Z,78.03
2019-04-01T02:25:03.670Z,78.52
2019-04-01T02:27:32.384Z,79.45
2019-04-01T02:30:01.576Z,79.85
2019-04-01T02:32:30.306Z,79.64
2019-04-01T02:34:59.042Z,79.96
2019-04-01T02:37:27.920Z,80.24
2019-04-01T02:39:56.636Z,80.25
2019-04-01T02:42:25.458Z,80.53
2019-04-01T02:44:54.225Z,80.42
2019-04-01T02:47:22.946Z,80.22
2019-04-01T02:49:51.665Z,79.57
2019-04-01T02:52:20.542Z,79.39
2019-04-01T02:54:49.256Z,79.14
2019-04-01T02:57:17.974Z,79.30
2019-04-01T02:59:46.822Z,78.99
2019-04-01T03:02:15.541Z,79.07
2019-04-01T03:04:44.261Z,78.75
2019-04-01T03:07:13.042Z,79.32
2019-04-01T03:09:41.782Z,79.14
2019-04-01T03:12:10.494Z,79.47
2019-04-01T03:14:39.253Z,79.74
2019-04-01T03:17:07.969Z,80.17
2019-04-01T03:19:36.686Z,80.34
2019-04-01T03:22:05.518Z,79.97
2019-04-01T03:24:34.242Z,80.08
2019-04-01T03:27:02.956Z,79.51
2019-04-01T03:29:31.723Z,79.86
2019-04-01T03:32:00.460Z,80.58
2019-04-01T03:34:29.176Z,80.77
2019-04-01T03:36:58.035Z,81.28
2019-04-01T03:39:26.759Z,80.89
2019-04-01T03:41:55.492Z,80.54
2019-04-01T03:44:24.385Z,81.12
2019-04-01T03:46:53.105Z,81.78
2019-04-01T03:49:21.820Z,81.80
2019-04-01T03:51:50.633Z,81.86
2019-04-01T03:54:19.353Z,82.42
2019-04-01T03:56:48.071Z,82.43
2019-04-01T03:59:17.241Z,82.51
2019-04-01T04:01:45.991Z,82.62
2019-04-01T04:04:14.690Z,82.72
2019-04-01T04:06:43.463Z,82.76
2019-04-01T04:09:12.234Z,82.49
2019-04-01T04:11:40.981Z,82.29
2019-04-01T04:14:09.790Z,82.64
2019-04-01T04:16:38.526Z,83.08
2019-04-01T04:19:07.249Z,83.12
2019-04-01T04:21:36.135Z,83.19
2019-04-01T04:24:04.918Z,83.43
2019-04-01T04:26:33.631Z,83.28
2019-04-01T04:29:02.527Z,83.06
2019-04-01T04:31:31.241Z,82.83
2019-04-01T04:33:59.961Z,83.52
2019-04-01T04:36:29.268Z,83.09
2019-04-01T04:38:57.995Z,83.00
2019-04-01T04:41:26.707Z,82.75
2019-04-01T04:43:55.596Z,82.33
2019-04-01T04:46:24.319Z,82.60
2019-04-01T04:48:53.036Z,82.51
2019-04-01T04:51:21.801Z,81.81
2019-04-01T04:53:50.519Z,80.68
2019-04-01T04:56:19.233Z,78.84
2019-04-01T04:58:48.196Z,79.00
2019-04-01T05:01:16.921Z,79.74
2019-04-01T05:03:45.646Z,81.56
2019-04-01T05:06:14.477Z,81.87
2019-04-01T05:08:43.208Z,81.43
2019-04-01T05:11:11.925Z,79.44
2019-04-01T05:13:40.718Z,77.98
2019-04-01T05:16:09.434Z,77.50
2019-04-01T05:18:38.157Z,76.42
2019-04-01T05:21:07.245Z,77.39
2019-04-01T05:23:35.961Z,77.42
2019-04-01T05:26:04.684Z,79.25
2019-04-01T05:28:34.938Z,78.98
2019-04-01T05:31:04.955Z,78.08
2019-04-01T05:33:36.684Z,78.51
2019-04-01T05:36:05.956Z,77.20
2019-04-01T05:38:34.665Z,74.77
2019-04-01T05:41:04.090Z,73.03
2019-04-01T05:43:32.932Z,73.05
2019-04-01T05:46:01.653Z,72.31
2019-04-01T05:48:31.572Z,70.36
2019-04-01T05:51:00.420Z,70.48
2019-04-01T05:53:29.156Z,70.20
2019-04-01T05:55:58.078Z,69.85
2019-04-01T05:58:26.834Z,70.69
2019-04-01T06:01:00.132Z,69.69
2019-04-01T06:03:28.955Z,70.94
2019-04-01T06:05:57.729Z,70.68
2019-04-01T06:08:26.455Z,70.73
2019-04-01T06:10:55.178Z,70.05
2019-04-01T06:13:24.138Z,69.15
2019-04-01T06:15:52.859Z,67.08
2019-04-01T06:18:21.780Z,64.41
2019-04-01T06:20:50.604Z,64.04
2019-04-01T06:23:20.764Z,65.21
2019-04-01T06:25:49.586Z,66.15
2019-04-01T06:28:18.344Z,66.45
2019-04-01T06:30:47.170Z,64.40
2019-04-01T06:33:15.906Z,64.39
2019-04-01T06:35:45.027Z,62.53
2019-04-01T06:38:13.951Z,58.34
2019-04-01T06:40:42.676Z,58.98
2019-04-01T06:43:11.551Z,59.46
2019-04-01T06:45:40.331Z,57.98
2019-04-01T06:48:09.065Z,57.27
2019-04-01T06:50:38.233Z,56.31
2019-04-01T06:53:06.954Z,55.10
2019-04-01T06:55:35.689Z,52.67
2019-04-01T06:58:04.615Z,51.47
2019-04-01T07:00:33.344Z,50.91
2019-04-01T07:03:02.070Z,49.68
2019-04-01T07:05:30.941Z,49.42
2019-04-01T07:07:59.970Z,49.23
2019-04-01T07:10:28.806Z,49.46
2019-04-01T07:12:57.689Z,47.17
2019-04-01T07:15:26.490Z,46.76
2019-04-01T07:17:55.209Z,46.63
2019-04-01T07:20:24.082Z,49.05
2019-04-01T07:22:52.908Z,46.77
2019-04-01T07:25:21.627Z,48.21
2019-04-01T07:27:50.906Z,46.83
2019-04-01T07:30:19.731Z,46.81
2019-04-01T07:32:48.456Z,45.77
2019-04-01T07:35:17.276Z,45.06
2019-04-01T07:37:46.003Z,44.74
2019-04-01T07:40:14.744Z,44.46
2019-04-01T07:42:43.605Z,45.00
2019-04-01T07:45:12.332Z,44.11
2019-04-01T07:47:41.105Z,44.30
2019-04-01T07:50:12.286Z,44.33
2019-04-01T07:52:40.825Z,45.01
2019-04-01T07:55:10.047Z,43.88
2019-04-01T07:57:39.274Z,44.99
2019-04-01T08:00:08.083Z,43.41
2019-04-01T08:02:36.801Z,43.40
2019-04-01T08:05:06.788Z,42.30
2019-04-01T08:07:35.502Z,42.61
2019-04-01T08:10:06.523Z,43.20
2019-04-01T08:12:35.475Z,42.99
2019-04-01T08:15:06.206Z,40.35
2019-04-01T08:17:34.929Z,40.86
2019-04-01T08:20:04.011Z,41.43
2019-04-01T08:22:32.734Z,40.28
2019-04-01T08:25:02.059Z,41.03
2019-04-01T08:27:30.815Z,41.56
2019-04-01T08:29:59.545Z,42.61
2019-04-01T08:32:28.301Z,40.23
2019-04-01T08:34:57.565Z,42.65
2019-04-01T08:37:26.553Z,40.11
2019-04-01T08:39:55.281Z,41.53
2019-04-01T08:42:24.122Z,40.51
2019-04-01T08:44:52.848Z,39.87
2019-04-01T08:47:21.579Z,39.84
2019-04-01T08:49:50.488Z,39.10
2019-04-01T08:52:19.213Z,38.61
2019-04-01T08:54:47.940Z,38.81
2019-04-01T08:57:16.797Z,39.04
2019-04-01T08:59:45.510Z,37.93
2019-04-01T09:02:18.297Z,37.91
2019-04-01T09:04:44.936Z,38.35
2019-04-01T09:07:13.681Z,36.52
2019-04-01T09:09:44.760Z,37.10
2019-04-01T09:12:13.845Z,36.04
2019-04-01T09:14:43.362Z,36.49
2019-04-01T09:17:12.790Z,33.96
2019-04-01T09:19:41.935Z,33.24
2019-04-01T09:22:10.655Z,32.74
2019-04-01T09:24:39.385Z,34.68
2019-04-01T09:27:08.166Z,30.68
2019-04-01T09:29:36.891Z,31.09
2019-04-01T09:32:05.615Z,30.97
2019-04-01T09:34:34.464Z,31.19
2019-04-01T09:37:03.186Z,32.11
2019-04-01T09:39:31.906Z,31.73
2019-04-01T09:42:00.754Z,32.56
2019-04-01T09:44:36.522Z,31.23
2019-04-01T09:46:59.920Z,31.19
2019-04-01T09:49:28.708Z,29.70
2019-04-01T09:51:57.515Z,28.85
2019-04-01T09:54:26.208Z,29.80
2019-04-01T09:56:55.057Z,28.68
2019-04-01T09:59:23.801Z,30.34
2019-04-01T10:01:52.524Z,28.02
2019-04-01T10:04:21.279Z,27.95
2019-04-01T10:06:49.991Z,27.64
2019-04-01T10:09:18.714Z,28.09
2019-04-01T10:11:47.545Z,29.13
2019-04-01T10:14:16.253Z,28.80
2019-04-01T10:16:44.982Z,29.35
2019-04-01T10:19:13.830Z,27.68
2019-04-01T10:21:45.216Z,28.77
2019-04-01T10:24:13.003Z,27.97
2019-04-01T10:26:41.795Z,27.50
2019-04-01T10:29:10.512Z,28.25
2019-04-01T10:31:39.319Z,28.39
2019-04-01T10:36:36.057Z,26.84
2019-04-01T10:39:06.941Z,26.97
2019-04-01T10:41:35.805Z,26.45
2019-04-01T10:44:05.327Z,25.60
2019-04-01T10:46:34.107Z,25.60
2019-04-01T10:49:03.013Z,26.43
2019-04-01T10:51:31.775Z,26.18
2019-04-01T10:54:00.480Z,26.64
2019-04-01T10:56:29.365Z,25.98
2019-04-01T10:58:58.160Z,25.60
2019-04-01T11:01:26.985Z,24.97
2019-04-01T11:03:55.741Z,24.60
2019-04-01T11:06:24.596Z,26.67
2019-04-01T11:08:53.359Z,24.15
2019-04-01T11:11:22.119Z,23.69
2019-04-01T11:13:51.991Z,24.31
2019-04-01T11:16:21.691Z,25.96
2019-04-01T11:18:50.738Z,26.18
2019-04-01T11:21:19.515Z,24.82
2019-04-01T11:23:48.368Z,23.54
2019-04-01T11:26:17.727Z,26.03
2019-04-01T11:28:46.433Z,23.75
2019-04-01T11:31:15.169Z,24.39
2019-04-01T11:33:44.220Z,23.81
2019-04-01T11:36:13.910Z,24.24
2019-04-01T11:38:43.019Z,24.67
2019-04-01T11:41:12.221Z,24.15
2019-04-01T11:43:40.958Z,25.10
2019-04-01T11:46:12.519Z,25.31
2019-04-01T11:48:40.156Z,23.75
2019-04-01T11:51:08.869Z,24.46
2019-04-01T11:53:37.671Z,23.08
2019-04-01T11:56:07.181Z,22.60
2019-04-01T11:58:35.900Z,23.74
2019-04-01T12:01:04.625Z,24.00
2019-04-01T12:03:33.935Z,23.12
2019-04-01T12:06:02.659Z,23.12
2019-04-01T12:08:31.671Z,25.03
2019-04-01T12:11:00.559Z,22.54
2019-04-01T12:13:29.282Z,23.50
2019-04-01T12:15:57.992Z,22.07
2019-04-01T12:18:26.752Z,23.01
2019-04-01T12:20:55.470Z,22.30
2019-04-01T12:23:24.184Z,22.57
2019-04-01T12:25:53.019Z,22.00
2019-04-01T12:28:21.731Z,21.38
2019-04-01T12:30:52.018Z,24.37
2019-04-01T12:33:21.102Z,21.71
2019-04-01T12:35:50.073Z,22.24
2019-04-01T12:38:18.806Z,22.86
2019-04-01T12:40:47.583Z,21.36
2019-04-01T12:43:16.313Z,21.13
2019-04-01T12:45:45.217Z,22.47
2019-04-01T12:48:14.094Z,22.46
2019-04-01T12:50:42.819Z,23.15
2019-04-01T12:53:11.537Z,24.01
2019-04-01T12:55:44.669Z,21.74
2019-04-01T12:58:11.269Z,23.52
2019-04-01T13:00:39.979Z,22.98
2019-04-01T13:03:08.766Z,22.76
2019-04-01T13:05:37.490Z,22.54
2019-04-01T13:08:06.205Z,22.48
2019-04-01T13:10:35.308Z,21.27
2019-04-01T13:13:04.121Z,22.44
2019-04-01T13:15:32.834Z,20.08
2019-04-01T13:18:01.595Z,20.69
2019-04-01T13:20:37.689Z,20.86
2019-04-01T13:23:00.763Z,23.10
2019-04-01T13:25:29.533Z,20.90
2019-04-01T13:27:58.267Z,20.78
2019-04-01T13:30:26.978Z,20.75
2019-04-01T13:32:56.258Z,20.11
2019-04-01T13:35:24.971Z,19.16
2019-04-01T13:37:53.686Z,19.67
2019-04-01T13:40:22.442Z,18.71
2019-04-01T13:42:51.167Z,19.43
2019-04-01T13:45:21.402Z,20.80
2019-04-01T13:47:50.722Z,20.96
2019-04-01T13:50:19.443Z,20.39
2019-04-01T13:52:48.167Z,20.85
2019-04-01T13:55:17.014Z,21.08
2019-04-01T13:57:45.736Z,22.11
2019-04-01T14:00:15.094Z,22.39
2019-04-01T14:02:44.045Z,19.98
2019-04-01T14:05:13.177Z,21.13
2019-04-01T14:07:41.887Z,21.32
2019-04-01T14:10:11.130Z,21.76
2019-04-01T14:12:39.844Z,22.07
2019-04-01T14:15:09.759Z,21.79
2019-04-01T14:17:38.820Z,21.26
2019-04-01T14:20:07.835Z,21.25
2019-04-01T14:22:36.546Z,22.42
2019-04-01T14:25:07.619Z,20.98
2019-04-01T14:27:36.382Z,21.16
2019-04-01T14:30:09.278Z,22.20
2019-04-01T14:32:38.162Z,22.82
2019-04-01T14:35:08.850Z,22.66
2019-04-01T14:37:37.588Z,22.04
2019-04-01T14:40:08.766Z,21.93
2019-04-01T14:42:39.605Z,22.54
2019-04-01T14:45:08.633Z,22.69
2019-04-01T14:47:55.581Z,22.12
2019-04-01T14:50:08.903Z,21.62
2019-04-01T14:52:37.631Z,22.18
2019-04-01T14:55:06.583Z,22.34
2019-04-01T14:57:35.301Z,22.78
2019-04-01T15:00:06.315Z,23.25
2019-04-01T15:02:35.307Z,23.95
2019-04-01T15:05:04.994Z,24.04
2019-04-01T15:07:33.824Z,23.99
2019-04-01T15:10:02.593Z,24.72
2019-04-01T15:12:31.323Z,23.99
2019-04-01T15:15:00.034Z,24.75
2019-04-01T15:17:28.999Z,25.32
2019-04-01T15:19:57.734Z,24.92
2019-04-01T15:22:27.237Z,25.17
2019-04-01T15:24:56.273Z,25.60
2019-04-01T15:27:24.996Z,25.38
2019-04-01T15:29:53.728Z,25.21
2019-04-01T15:32:23.197Z,25.79
2019-04-01T15:34:52.194Z,25.85
2019-04-01T15:37:20.919Z,26.61
2019-04-01T15:39:49.994Z,27.25
2019-04-01T15:42:18.754Z,26.88
2019-04-01T15:44:47.482Z,26.99
2019-04-01T15:47:16.515Z,27.46
2019-04-01T15:49:45.194Z,27.34
2019-04-01T15:52:13.878Z,27.18
2019-04-01T15:54:42.607Z,28.24
2019-04-01T15:57:15.001Z,28.41
2019-04-01T15:59:41.705Z,29.03
2019-04-01T16:02:16.157Z,29.02
2019-04-01T16:04:44.861Z,29.75
2019-04-01T16:07:13.538Z,30.29
2019-04-01T16:09:42.375Z,31.18
2019-04-01T16:12:11.062Z,31.00
2019-04-01T16:14:40.287Z,31.96
2019-04-01T16:17:09.626Z,32.02
2019-04-01T16:19:38.319Z,32.62
2019-04-01T16:22:07.001Z,33.05
2019-04-01T16:24:35.836Z,33.90
2019-04-01T16:27:04.524Z,33.86
2019-04-01T16:29:33.209Z,34.52
2019-04-01T16:32:01.981Z,34.98
2019-04-01T16:34:30.671Z,35.77
2019-04-01T16:36:59.346Z,36.54
2019-04-01T16:39:28.079Z,37.34
2019-04-01T16:41:56.756Z,37.39
2019-04-01T16:44:25.444Z,37.67
2019-04-01T16:46:54.298Z,38.33
2019-04-01T16:49:22.978Z,38.84
2019-04-01T16:51:51.670Z,38.83
2019-04-01T16:54:20.421Z,39.58
2019-04-01T16:56:49.120Z,40.12
2019-04-01T16:59:17.813Z,40.41
2019-04-01T17:01:46.788Z,40.72
2019-04-01T17:04:17.070Z,41.08
2019-04-01T17:06:46.021Z,41.39
2019-04-01T17:09:14.833Z,41.60
2019-04-01T17:11:43.531Z,42.09
2019-04-01T17:14:12.217Z,42.27
2019-04-01T17:16:41.378Z,42.41
2019-04-01T17:19:10.112Z,42.18
2019-04-01T17:21:38.750Z,42.11
2019-04-01T17:24:07.598Z,42.75
2019-04-01T17:26:44.815Z,42.96
2019-04-01T17:29:13.547Z,42.88
2019-04-01T17:31:42.232Z,42.83
2019-04-01T17:34:10.913Z,42.92
2019-04-01T17:36:40.135Z,42.94
2019-04-01T17:39:12.140Z,43.18
2019-04-01T17:41:42.231Z,43.43
2019-04-01T17:44:11.070Z,43.47
2019-04-01T17:46:39.749Z,43.40
2019-04-01T17:49:08.439Z,43.54
2019-04-01T17:51:37.480Z,43.64
2019-04-01T17:54:06.168Z,43.77
2019-04-01T17:56:34.851Z,43.76
2019-04-01T17:59:04.053Z,43.84
2019-04-01T18:01:32.776Z,44.20
2019-04-01T18:04:02.522Z,44.87
2019-04-01T18:06:31.680Z,44.60
2019-04-01T18:09:00.441Z,44.70
2019-04-01T18:11:30.579Z,44.84
2019-04-01T18:14:02.740Z,44.81
2019-04-01T18:16:31.451Z,45.01
2019-04-01T18:19:00.333Z,44.44
2019-04-01T18:21:29.287Z,45.16
2019-04-01T18:23:57.970Z,45.04
2019-04-01T18:26:26.653Z,44.70
2019-04-01T18:28:55.752Z,44.88
2019-04-01T18:31:24.474Z,46.61
2019-04-01T18:33:56.565Z,47.33
2019-04-01T18:36:23.964Z,47.21
2019-04-01T18:38:52.642Z,46.86
2019-04-01T18:41:21.323Z,47.23
2019-04-01T18:43:50.041Z,47.83
2019-04-01T18:46:21.121Z,48.26
2019-04-01T18:48:49.123Z,48.50
2019-04-01T18:51:20.366Z,48.54
2019-04-01T18:53:48.254Z,48.71
2019-04-01T18:56:16.943Z,48.96
2019-04-01T18:58:45.651Z,48.98
2019-04-01T19:01:15.877Z,48.63
2019-04-01T19:03:44.688Z,47.95
2019-04-01T19:06:13.454Z,48.36
2019-04-01T19:08:42.150Z,47.94
2019-04-01T19:11:10.886Z,48.09
2019-04-01T19:13:39.853Z,47.82
2019-04-01T19:16:11.796Z,47.60
2019-04-01T19:18:41.955Z,47.67
2019-04-01T19:21:12.189Z,47.79
2019-04-01T19:23:40.974Z,47.73
2019-04-01T19:26:11.090Z,47.84
2019-04-01T19:28:40.191Z,48.05
2019-04-01T19:31:08.880Z,48.33
2019-04-01T19:33:38.264Z,48.63
2019-04-01T19:36:07.376Z,49.31
2019-04-01T19:38:36.066Z,49.95
2019-04-01T19:41:04.737Z,50.72
2019-04-01T19:43:56.274Z,51.21
2019-04-01T19:46:16.232Z,51.71
2019-04-01T19:48:44.913Z,52.00
2019-04-01T19:51:13.827Z,52.94
2019-04-01T19:53:42.523Z,53.91
2019-04-01T19:56:11.208Z,53.36
2019-04-01T19:58:39.957Z,53.52
2019-04-01T20:01:08.661Z,54.11
2019-04-01T20:03:37.358Z,54.95
2019-04-01T20:06:07.644Z,55.13
2019-04-01T20:08:36.485Z,55.75
2019-04-01T20:11:05.191Z,56.16
2019-04-01T20:13:33.940Z,57.41
2019-04-01T20:19:08.755Z,57.82
2019-04-01T20:21:37.429Z,58.11
2019-04-01T20:24:06.111Z,58.32
2019-04-01T20:26:34.850Z,58.81
2019-04-01T20:29:03.545Z,58.73
2019-04-01T20:31:32.236Z,59.17
2019-04-01T20:34:04.095Z,58.49
2019-04-01T20:36:31.719Z,57.91
2019-04-01T20:39:00.494Z,57.40
2019-04-01T20:41:29.397Z,57.65
2019-04-01T20:43:58.082Z,58.62
2019-04-01T20:46:26.770Z,58.44
2019-04-01T20:48:55.498Z,58.78
2019-04-01T20:51:25.886Z,59.16
2019-04-01T20:53:54.737Z,59.72
2019-04-01T20:56:23.666Z,58.78
2019-04-01T20:58:52.358Z,57.95
2019-04-01T21:01:21.042Z,58.10
2019-04-01T21:03:49.858Z,58.97
2019-04-01T21:06:18.647Z,60.63
2019-04-01T21:08:47.428Z,61.95
2019-04-01T21:11:16.567Z,62.86
2019-04-01T21:13:45.272Z,63.53
2019-04-01T21:16:13.949Z,63.96
2019-04-01T21:18:42.748Z,63.23
2019-04-01T21:21:11.433Z,62.53
2019-04-01T21:23:40.118Z,61.99
2019-04-01T21:26:08.959Z,62.41
2019-04-01T21:28:37.644Z,62.49
2019-04-01T21:31:06.335Z,62.71
2019-04-01T21:33:35.155Z,63.12
2019-04-01T21:36:03.837Z,63.01
2019-04-01T21:38:33.137Z,63.47
2019-04-01T21:41:02.261Z,63.63
2019-04-01T21:43:30.937Z,63.43
2019-04-01T21:45:59.609Z,63.69
2019-04-01T21:48:28.330Z,64.10
2019-04-01T21:50:57.009Z,64.93
2019-04-01T21:53:25.688Z,65.07
2019-04-01T21:55:54.594Z,64.49
2019-04-01T21:58:23.393Z,63.72
2019-04-01T22:00:56.980Z,63.28
2019-04-01T22:03:25.736Z,63.04
2019-04-01T22:05:54.418Z,62.29
2019-04-01T22:08:23.194Z,62.16
2019-04-01T22:10:51.946Z,62.52
2019-04-01T22:13:20.619Z,62.64
2019-04-01T22:15:50.175Z,63.22
2019-04-01T22:18:19.348Z,63.60
2019-04-01T22:20:48.029Z,63.83
2019-04-01T22:23:16.701Z,64.23
2019-04-01T22:25:45.561Z,64.82
2019-04-01T22:28:14.231Z,65.21
2019-04-01T22:30:42.912Z,65.64
2019-04-01T22:33:11.682Z,66.04
2019-04-01T22:35:41.563Z,66.17
2019-04-01T22:38:10.683Z,66.48
2019-04-01T22:40:39.506Z,66.47
2019-04-01T22:43:08.197Z,66.61
2019-04-01T22:45:36.874Z,66.92
2019-04-01T22:48:05.614Z,67.04
2019-04-01T22:50:34.290Z,66.96
2019-04-01T22:53:04.286Z,67.14
2019-04-01T22:55:33.198Z,67.14
2019-04-01T22:58:01.878Z,67.21
2019-04-01T23:00:30.565Z,67.25
2019-04-01T23:02:59.791Z,67.16
2019-04-01T23:05:28.477Z,66.92
2019-04-01T23:07:57.157Z,67.03
2019-04-01T23:10:27.250Z,67.22
2019-04-01T23:12:56.224Z,67.44
2019-04-01T23:15:24.896Z,67.41
2019-04-01T23:17:53.740Z,65.71
2019-04-01T23:20:22.413Z,66.84
2019-04-01T23:22:51.087Z,67.53
2019-04-01T23:25:20.217Z,68.86
2019-04-01T23:27:48.896Z,69.89
2019-04-01T23:30:17.567Z,70.67
2019-04-01T23:32:46.392Z,71.22
2019-04-01T23:35:15.164Z,69.87
2019-04-01T23:37:43.852Z,70.27
2019-04-01T23:40:12.890Z,70.32
2019-04-01T23:42:41.568Z,69.64
2019-04-01T23:45:10.742Z,70.62
2019-04-01T23:47:39.578Z,71.38
2019-04-01T23:50:09.833Z,71.50
2019-04-01T23:52:38.619Z,71.79
2019-04-01T23:55:07.568Z,72.50
2019-04-01T23:57:36.247Z,72.94
